Time;durP1;ratioP1;P1;durP2;ratioP2;P2;SDS_P1;SDS_P2;PMS_P1;PMS_P2;Temp;Humidity;BMP_temperature;BMP_pressure;BME280_temperature;BME280_humidity;BME280_pressure;Samples;Min_cycle;Max_cycle;Signal;HPM_P1;HPM_P2
2023/02/27 00:01:07;;;;;;;0.10;0.00;;;;;;;3.51;59.08;100379.25;5052591;28;20110;-70
2023/02/27 00:03:34;;;;;;;0.30;0.10;;;;;;;3.51;58.95;100403.25;5053644;28;20028;-70
2023/02/27 00:05:59;;;;;;;0.30;0.10;;;;;;;3.52;58.46;100384.31;5055257;28;20124;-70
2023/02/27 00:08:26;;;;;;;0.57;0.10;;;;;;;3.53;57.29;100391.09;5058929;28;20032;-70
2023/02/27 00:10:52;;;;;;;0.63;0.10;;;;;;;3.51;58.51;100398.09;5055293;28;20028;-70
2023/02/27 00:13:19;;;;;;;1.05;0.20;;;;;;;3.57;58.14;100415.75;5049509;28;20021;-71
2023/02/27 00:15:47;;;;;;;2.13;0.10;;;;;;;3.54;58.01;100433.97;5056051;28;20040;-70
2023/02/27 00:18:14;;;;;;;0.30;0.10;;;;;;;3.53;58.38;100437.47;5034880;28;20490;-70
2023/02/27 00:20:39;;;;;;;0.30;0.10;;;;;;;3.50;58.70;100440.25;5055237;28;20032;-70
2023/02/27 00:23:07;;;;;;;0.32;0.10;;;;;;;3.52;58.25;100435.00;5048153;28;20032;-70
2023/02/27 00:25:34;;;;;;;0.57;0.10;;;;;;;3.52;58.54;100453.03;5044597;28;20052;-70
2023/02/27 00:28:00;;;;;;;0.95;0.10;;;;;;;3.49;58.01;100456.63;5041139;28;20512;-70
2023/02/27 00:30:26;;;;;;;0.40;0.17;;;;;;;3.47;57.44;100448.19;5062679;28;20032;-70
2023/02/27 00:32:53;;;;;;;0.20;0.10;;;;;;;3.42;59.05;100463.09;5059991;28;20098;-71
2023/02/27 00:35:19;;;;;;;2.25;0.10;;;;;;;3.38;59.38;100453.91;5053372;28;20029;-71
2023/02/27 00:37:45;;;;;;;0.47;0.10;;;;;;;3.35;59.10;100472.13;5045277;28;20049;-71
2023/02/27 00:40:11;;;;;;;0.73;0.15;;;;;;;3.35;59.50;100461.84;5054323;28;20036;-70
2023/02/27 00:42:37;;;;;;;1.25;0.20;;;;;;;3.36;59.62;100458.34;5056426;28;20029;-70
2023/02/27 00:45:05;;;;;;;0.40;0.10;;;;;;;3.34;60.17;100455.03;5053762;28;20766;-70
2023/02/27 00:47:31;;;;;;;0.30;0.10;;;;;;;3.31;60.09;100470.69;5036526;28;20072;-70
2023/02/27 00:49:57;;;;;;;0.40;0.40;;;;;;;3.31;59.42;100439.78;5055751;28;20102;-70
2023/02/27 00:52:23;;;;;;;1.67;0.20;;;;;;;3.23;59.94;100463.47;5055699;28;20392;-71
2023/02/27 00:54:49;;;;;;;0.60;0.10;;;;;;;3.24;60.35;100454.81;5056035;28;20056;-70
2023/02/27 00:57:17;;;;;;;0.30;0.10;;;;;;;3.26;60.57;100447.84;5053369;28;20028;-71
2023/02/27 00:59:44;;;;;;;0.35;0.10;;;;;;;3.23;60.96;100457.50;5053762;28;20044;-71
2023/02/27 01:02:09;;;;;;;0.50;0.20;;;;;;;3.22;60.39;100446.38;5042246;28;20507;-70
2023/02/27 01:04:35;;;;;;;0.20;0.10;;;;;;;3.24;61.13;100461.72;5055155;28;20047;-70
2023/02/27 01:07:01;;;;;;;0.20;0.10;;;;;;;3.22;60.24;100484.16;5052173;28;20047;-71
2023/02/27 01:09:27;;;;;;;0.50;0.20;;;;;;;3.16;60.49;100463.97;5057122;28;20040;-70
2023/02/27 01:11:53;;;;;;;0.43;0.13;;;;;;;3.17;60.45;100468.19;5050744;28;20606;-71
2023/02/27 01:14:19;;;;;;;0.70;0.20;;;;;;;3.17;60.01;100458.72;5059080;28;20068;-70
2023/02/27 01:16:44;;;;;;;1.48;0.10;;;;;;;3.17;59.99;100457.88;5049323;28;20060;-70
2023/02/27 01:19:10;;;;;;;0.60;0.28;;;;;;;3.14;59.29;100470.94;5054204;28;20032;-70
2023/02/27 01:21:36;;;;;;;0.40;0.10;;;;;;;3.19;59.73;100468.91;5055231;28;20121;-70
2023/02/27 01:24:03;;;;;;;0.43;0.25;;;;;;;3.21;58.97;100467.06;5057717;28;20052;-70
2023/02/27 01:26:29;;;;;;;0.30;0.20;;;;;;;3.18;58.80;100451.81;5055629;28;20109;-71
2023/02/27 01:28:56;;;;;;;2.00;0.17;;;;;;;3.13;59.25;100480.41;5053742;28;20112;-71
2023/02/27 01:31:22;;;;;;;0.57;0.20;;;;;;;3.17;58.91;100470.75;5058573;28;20047;-71
2023/02/27 01:33:48;;;;;;;0.68;0.10;;;;;;;3.20;59.12;100457.69;5061554;28;20037;-71
2023/02/27 01:36:16;;;;;;;2.22;0.10;;;;;;;3.19;58.23;100453.47;5052873;28;20468;-71
2023/02/27 01:38:41;;;;;;;0.55;0.13;;;;;;;3.17;59.47;100450.16;5053269;28;20032;-71
2023/02/27 01:41:08;;;;;;;0.30;0.10;;;;;;;3.14;59.39;100447.78;5056474;28;20039;-70
2023/02/27 01:44:14;;;;;;;0.88;0.10;;;;;;;3.11;58.47;100460.84;5055498;28;20032;-71
2023/02/27 01:46:41;;;;;;;0.55;0.20;;;;;;;3.12;58.02;100462.50;5040242;28;20052;-71
2023/02/27 01:49:18;;;;;;;0.43;0.10;;;;;;;3.13;58.54;100444.38;5060397;28;20033;-71
2023/02/27 01:51:53;;;;;;;1.02;0.20;;;;;;;3.13;59.84;100459.00;5048098;28;20051;-70
2023/02/27 01:54:23;;;;;;;1.17;0.20;;;;;;;3.07;57.89;100449.91;5055309;28;20423;-70
2023/02/27 01:56:49;;;;;;;0.80;0.20;;;;;;;3.12;58.78;100426.47;5028078;28;20045;-71
2023/02/27 01:59:17;;;;;;;0.40;0.10;;;;;;;3.11;58.01;100443.66;5061459;28;20098;-71
2023/02/27 02:01:44;;;;;;;1.00;0.15;;;;;;;3.15;57.36;100470.84;5056707;28;20063;-70
2023/02/27 02:04:26;;;;;;;1.05;0.10;;;;;;;3.12;57.36;100478.78;5055635;28;20029;-71
2023/02/27 02:07:03;;;;;;;0.82;0.25;;;;;;;3.13;57.65;100495.88;5056079;28;20087;-71
2023/02/27 02:09:33;;;;;;;0.45;0.10;;;;;;;3.13;58.09;100493.28;5049886;28;20101;-71
2023/02/27 02:11:59;;;;;;;1.05;0.15;;;;;;;3.12;57.97;100508.84;5018134;28;20040;-71
2023/02/27 02:14:25;;;;;;;0.63;0.20;;;;;;;3.12;57.71;100498.53;5057906;28;20029;-71
2023/02/27 02:17:17;;;;;;;0.90;0.20;;;;;;;3.12;57.44;100491.63;5055313;28;20047;-71
2023/02/27 02:20:12;;;;;;;0.60;0.20;;;;;;;3.21;56.83;100490.25;5057363;28;20059;-70
2023/02/27 02:22:47;;;;;;;0.57;0.15;;;;;;;3.20;57.77;100493.75;5063180;28;20041;-70
2023/02/27 02:25:41;;;;;;;0.20;0.10;;;;;;;3.17;57.80;100496.50;5063708;28;20039;-71
2023/02/27 02:28:25;;;;;;;0.50;0.20;;;;;;;3.16;57.54;100494.84;5064069;28;20043;-71
2023/02/27 02:31:23;;;;;;;0.93;0.20;;;;;;;3.18;55.95;100516.19;5067110;28;20036;-71
2023/02/27 02:33:58;;;;;;;0.40;0.20;;;;;;;3.16;57.00;100524.00;5041699;28;20133;-71
2023/02/27 02:36:41;;;;;;;0.85;0.10;;;;;;;3.20;57.21;100501.47;5047272;28;20205;-71
2023/02/27 02:39:19;;;;;;;0.60;0.20;;;;;;;3.18;57.47;100529.06;5045755;28;20036;-71
2023/02/27 02:41:48;;;;;;;0.40;0.10;;;;;;;3.15;57.33;100518.94;5043442;28;20116;-71
2023/02/27 02:44:40;;;;;;;1.00;0.20;;;;;;;3.19;55.86;100528.97;5047411;28;20457;-71
2023/02/27 02:47:36;;;;;;;0.93;0.20;;;;;;;3.17;57.19;100532.56;5047705;28;20040;-71
2023/02/27 02:50:11;;;;;;;0.40;0.10;;;;;;;3.15;58.18;100544.69;5043778;28;20028;-71
2023/02/27 02:53:16;;;;;;;1.25;0.10;;;;;;;3.10;57.88;100536.44;5049635;28;20473;-71
2023/02/27 02:55:58;;;;;;;0.30;0.10;;;;;;;3.09;58.68;100548.47;5016091;28;20048;-70
2023/02/27 02:58:56;;;;;;;1.45;0.43;;;;;;;3.10;58.72;100536.44;5047377;28;20036;-71
2023/02/27 03:01:32;;;;;;;1.30;0.20;;;;;;;3.14;57.52;100543.03;5046097;28;20358;-70
2023/02/27 03:04:07;;;;;;;1.15;0.20;;;;;;;3.16;58.49;100543.78;5045329;28;20029;-70
2023/02/27 03:06:39;;;;;;;0.65;0.20;;;;;;;3.10;58.60;100526.94;5047610;28;20121;-70
2023/02/27 03:09:07;;;;;;;0.88;0.20;;;;;;;3.11;58.70;100528.59;5028982;28;20091;-70
2023/02/27 03:11:37;;;;;;;2.45;0.20;;;;;;;3.08;58.78;100544.25;5046825;28;20392;-70
2023/02/27 03:14:12;;;;;;;2.13;0.20;;;;;;;3.07;58.47;100547.75;5028945;28;20044;-70
2023/02/27 03:16:49;;;;;;;0.60;0.20;;;;;;;3.07;57.82;100572.66;5040866;28;20093;-70
2023/02/27 03:19:24;;;;;;;2.00;0.17;;;;;;;3.09;58.47;100556.19;5041566;28;20033;-69
2023/02/27 03:22:00;;;;;;;3.95;0.20;;;;;;;3.08;57.95;100571.72;5039102;28;20106;-70
2023/02/27 03:24:36;;;;;;;5.45;1.80;;;;;;;3.06;57.65;100546.09;5046898;28;20124;-70
2023/02/27 03:27:05;;;;;;;0.73;0.30;;;;;;;3.12;57.81;100545.72;5038916;28;20029;-70
2023/02/27 03:29:41;;;;;;;1.92;0.20;;;;;;;3.15;57.61;100555.00;5047309;28;20191;-70
2023/02/27 03:32:10;;;;;;;;;;;;;;;3.08;57.42;100556.28;5055324;28;20056;-70
2023/02/27 03:34:40;;;;;;;0.88;0.20;;;;;;;3.07;58.13;100544.34;5050953;28;19927;-71
2023/02/27 03:37:29;;;;;;;0.73;0.20;;;;;;;3.04;58.00;100562.53;5068981;28;20036;-71
2023/02/27 03:40:17;;;;;;;0.70;0.20;;;;;;;2.98;57.88;100564.56;5063560;28;20024;-71
2023/02/27 03:43:08;;;;;;;1.00;0.40;;;;;;;2.98;57.48;100554.28;5060152;28;20090;-71
2023/02/27 03:45:38;;;;;;;1.05;0.30;;;;;;;3.03;57.45;100571.19;5018254;28;20067;-70
2023/02/27 03:48:06;;;;;;;0.60;0.30;;;;;;;2.97;57.90;100572.38;5059669;28;20032;-71
2023/02/27 03:50:34;;;;;;;0.43;0.20;;;;;;;2.97;57.95;100556.94;5068343;28;20383;-71
2023/02/27 03:53:05;;;;;;;1.25;0.30;;;;;;;2.90;58.34;100581.38;5055804;28;20036;-70
2023/02/27 03:55:34;;;;;;;0.60;0.32;;;;;;;2.87;58.24;100572.09;5056352;28;20025;-70
2023/02/27 03:58:01;;;;;;;0.60;0.20;;;;;;;2.83;58.28;100565.53;5031043;28;20036;-70
2023/02/27 04:00:27;;;;;;;2.45;0.20;;;;;;;2.81;58.77;100557.06;5062541;28;20527;-70
2023/02/27 04:02:56;;;;;;;2.88;0.40;;;;;;;2.79;58.22;100560.66;5063440;28;20059;-71
2023/02/27 04:05:22;;;;;;;0.60;0.20;;;;;;;2.80;58.72;100549.44;5058368;28;20566;-71
2023/02/27 04:08:14;;;;;;;0.50;0.20;;;;;;;2.80;58.30;100568.28;5057664;28;20068;-71
2023/02/27 04:10:40;;;;;;;1.25;0.20;;;;;;;2.78;57.63;100579.59;5069861;28;20107;-71
2023/02/27 04:13:31;;;;;;;0.40;0.28;;;;;;;2.82;57.39;100579.31;5064478;28;20043;-71
2023/02/27 04:16:14;;;;;;;0.85;0.30;;;;;;;2.86;58.16;100575.59;5063803;28;20033;-70
2023/02/27 04:19:03;;;;;;;1.35;0.30;;;;;;;2.83;58.26;100585.28;5063242;28;20045;-70
2023/02/27 04:22:03;;;;;;;0.45;0.20;;;;;;;2.71;58.69;100596.28;5064011;28;20481;-71
2023/02/27 04:24:54;;;;;;;0.93;0.20;;;;;;;2.74;58.35;100594.38;5062406;28;20061;-71
2023/02/27 04:27:50;;;;;;;1.33;0.43;;;;;;;2.66;58.30;100609.44;5059319;28;20362;-71
2023/02/27 04:30:32;;;;;;;1.02;0.35;;;;;;;2.73;57.72;100592.72;5062237;28;20028;-71
2023/02/27 04:33:27;;;;;;;0.60;0.30;;;;;;;2.64;58.76;100591.50;5049784;28;20064;-71
2023/02/27 04:36:00;;;;;;;0.50;0.25;;;;;;;2.59;58.10;100584.97;5043401;28;20203;-71
2023/02/27 04:38:33;;;;;;;1.00;0.20;;;;;;;2.66;57.21;100599.13;5014336;28;20127;-71
2023/02/27 04:41:31;;;;;;;1.42;0.40;;;;;;;2.66;57.74;100592.25;5043216;28;20538;-71
2023/02/27 04:43:58;;;;;;;0.47;0.20;;;;;;;2.66;58.00;100599.97;5039937;28;20179;-71
2023/02/27 04:46:26;;;;;;;1.65;0.30;;;;;;;2.69;56.93;100606.69;5039901;28;20437;-71
2023/02/27 04:49:05;;;;;;;0.60;0.20;;;;;;;2.70;57.35;100603.19;5026830;28;20910;-71
2023/02/27 04:51:37;;;;;;;1.23;0.20;;;;;;;2.76;56.95;100612.28;5042560;28;20033;-71
2023/02/27 04:54:10;;;;;;;0.50;0.20;;;;;;;2.79;56.42;100606.97;5028444;28;20036;-70
2023/02/27 04:56:51;;;;;;;0.75;0.20;;;;;;;2.82;55.99;100615.34;5044562;28;20195;-70
2023/02/27 04:59:29;;;;;;;0.60;0.20;;;;;;;2.86;55.80;100603.91;5042676;28;20094;-71
2023/02/27 05:02:09;;;;;;;0.93;0.20;;;;;;;2.86;55.52;100614.19;5018751;28;20044;-71
2023/02/27 05:04:37;;;;;;;0.57;0.20;;;;;;;2.88;55.20;100630.38;5029700;28;20125;-71
2023/02/27 05:07:08;;;;;;;0.75;0.30;;;;;;;2.88;55.56;100635.53;5038770;28;20032;-71
2023/02/27 05:09:41;;;;;;;0.90;0.35;;;;;;;2.77;56.71;100617.34;5026612;28;20052;-71
2023/02/27 05:12:31;;;;;;;0.77;0.30;;;;;;;2.62;57.34;100637.06;5039627;28;20116;-71
2023/02/27 05:15:10;;;;;;;0.63;0.30;;;;;;;2.59;56.95;100633.84;5039647;28;20025;-71
2023/02/27 05:17:46;;;;;;;1.42;0.40;;;;;;;2.62;56.56;100631.94;5033038;28;20040;-71
2023/02/27 05:20:13;;;;;;;1.73;0.35;;;;;;;2.64;57.22;100631.84;5038233;28;20049;-71
2023/02/27 05:23:08;;;;;;;1.05;0.40;;;;;;;2.56;56.66;100641.75;5042869;28;20052;-71
2023/02/27 05:25:44;;;;;;;2.55;0.43;;;;;;;2.62;57.10;100619.06;5037439;28;20037;-71
2023/02/27 05:28:35;;;;;;;0.90;0.30;;;;;;;2.55;56.60;100604.91;5034137;28;20799;-70
2023/02/27 05:31:14;;;;;;;0.65;0.30;;;;;;;2.58;56.79;100611.63;5025679;28;20048;-71
2023/02/27 05:33:58;;;;;;;1.65;0.40;;;;;;;2.58;56.65;100624.47;5044708;28;20033;-71
2023/02/27 05:36:46;;;;;;;0.75;0.22;;;;;;;2.51;57.38;100626.59;5045109;28;20372;-71
2023/02/27 05:39:14;;;;;;;0.57;0.30;;;;;;;2.60;56.81;100643.22;5028442;28;20046;-71
2023/02/27 05:41:47;;;;;;;0.38;0.20;;;;;;;2.65;56.87;100654.91;5045727;28;20396;-71
2023/02/27 05:44:27;;;;;;;0.82;0.20;;;;;;;2.71;56.26;100656.31;5048372;28;20511;-71
2023/02/27 05:47:04;;;;;;;3.42;0.30;;;;;;;2.71;56.36;100640.88;5041113;28;20029;-70
2023/02/27 05:49:35;;;;;;;3.88;0.30;;;;;;;2.70;57.06;100657.22;5039112;28;20117;-71
2023/02/27 05:52:06;;;;;;;2.80;0.30;;;;;;;2.66;56.54;100640.31;5031813;28;20511;-72
2023/02/27 05:54:54;;;;;;;0.60;0.20;;;;;;;2.68;56.53;100664.19;5038411;28;20029;-71
2023/02/27 05:57:28;;;;;;;1.10;0.45;;;;;;;2.67;56.20;100658.22;5041282;28;20417;-71
2023/02/27 06:00:05;;;;;;;0.85;0.32;;;;;;;2.67;56.07;100654.81;5048279;28;20053;-71
2023/02/27 06:02:31;;;;;;;0.85;0.55;;;;;;;2.66;56.37;100673.75;5037354;28;20389;-71
2023/02/27 06:04:57;;;;;;;5.63;0.60;;;;;;;2.67;56.28;100695.97;5041815;28;20111;-71
2023/02/27 06:07:22;;;;;;;2.33;0.40;;;;;;;2.75;55.31;100674.97;5046602;28;20482;-71
2023/02/27 06:09:49;;;;;;;0.63;0.30;;;;;;;2.76;55.44;100667.16;5039494;28;20071;-71
2023/02/27 06:12:15;;;;;;;1.65;0.50;;;;;;;2.75;55.69;100675.78;5044028;28;20404;-71
2023/02/27 06:14:41;;;;;;;0.82;0.40;;;;;;;2.70;56.71;100666.69;5046914;28;20119;-71
2023/02/27 06:17:07;;;;;;;0.93;0.40;;;;;;;2.99;54.77;100673.50;5045484;28;20120;-69
2023/02/27 06:19:33;;;;;;;1.45;0.80;;;;;;;2.95;54.98;100688.28;5044368;28;20032;-70
2023/02/27 06:21:58;;;;;;;0.80;0.50;;;;;;;2.94;55.35;100666.06;5048092;28;20044;-70
2023/02/27 06:24:25;;;;;;;2.60;0.30;;;;;;;2.91;55.07;100686.81;5040485;28;20485;-70
2023/02/27 06:26:50;;;;;;;1.65;0.43;;;;;;;2.86;55.47;100693.97;5047621;28;20049;-71
2023/02/27 06:29:16;;;;;;;1.33;0.50;;;;;;;2.89;55.37;100691.22;5045313;28;20032;-71
2023/02/27 06:31:41;;;;;;;1.35;0.50;;;;;;;2.95;55.40;100690.88;5049736;28;20045;-70
2023/02/27 06:34:07;;;;;;;0.90;0.30;;;;;;;3.06;54.65;100695.38;5061968;28;20039;-71
2023/02/27 06:36:33;;;;;;;0.88;0.30;;;;;;;3.05;54.72;100708.34;5047074;28;20044;-71
2023/02/27 06:38:59;;;;;;;3.53;0.50;;;;;;;3.05;54.83;100709.19;5068007;28;20810;-71
2023/02/27 06:41:25;;;;;;;2.25;0.38;;;;;;;3.11;54.24;100726.00;5064917;28;20161;-70
2023/02/27 06:43:51;;;;;;;1.83;0.30;;;;;;;3.17;54.80;100712.78;5066380;28;20480;-71
2023/02/27 06:46:16;;;;;;;4.88;0.40;;;;;;;3.17;53.89;100699.91;5067559;28;20043;-70
2023/02/27 06:48:42;;;;;;;0.70;0.32;;;;;;;3.37;53.32;100696.94;5062778;28;20601;-70
2023/02/27 06:51:08;;;;;;;2.35;0.30;;;;;;;3.40;53.31;100717.38;5046392;28;20040;-70
2023/02/27 06:53:34;;;;;;;2.63;0.38;;;;;;;3.57;53.39;100706.88;5063341;28;20472;-69
2023/02/27 06:56:00;;;;;;;0.93;0.32;;;;;;;3.57;53.54;100691.41;5066735;28;20036;-69
2023/02/27 06:58:26;;;;;;;1.80;0.28;;;;;;;3.60;51.57;100700.69;5064885;28;20031;-71
2023/02/27 07:00:52;;;;;;;0.85;0.40;;;;;;;3.58;51.60;100708.53;5063360;28;20376;-69
2023/02/27 07:03:17;;;;;;;3.60;0.40;;;;;;;3.86;51.46;100717.94;5065055;28;20025;-70
2023/02/27 07:05:42;;;;;;;1.27;0.40;;;;;;;4.65;50.71;100719.78;5060778;28;20155;-69
2023/02/27 07:08:09;;;;;;;0.60;0.30;;;;;;;4.32;50.79;100689.22;5061355;28;20444;-70
2023/02/27 07:10:34;;;;;;;1.45;0.40;;;;;;;3.69;52.74;100709.63;5046045;28;20497;-70
2023/02/27 07:13:00;;;;;;;1.25;0.50;;;;;;;3.94;52.76;100678.78;5043203;28;21547;-70
2023/02/27 07:15:25;;;;;;;7.53;0.47;;;;;;;4.45;50.96;100699.59;5050889;28;20037;-70
2023/02/27 07:17:53;;;;;;;2.65;0.60;;;;;;;4.16;50.92;100712.63;5066085;28;20036;-70
2023/02/27 07:20:18;;;;;;;2.97;0.30;;;;;;;3.79;52.09;100702.94;5059442;28;20052;-69
2023/02/27 07:22:44;;;;;;;3.15;0.47;;;;;;;3.84;52.18;100729.28;5063756;28;20035;-69
2023/02/27 07:25:09;;;;;;;1.58;0.50;;;;;;;3.92;52.09;100716.72;5066680;28;20503;-70
2023/02/27 07:27:35;;;;;;;1.38;0.35;;;;;;;3.70;52.12;100729.31;5063116;28;20098;-70
2023/02/27 07:30:00;;;;;;;3.97;0.40;;;;;;;3.62;52.27;100735.75;5060344;28;20025;-70
2023/02/27 07:32:26;;;;;;;2.80;0.47;;;;;;;3.62;52.57;100724.63;5064441;28;20194;-70
2023/02/27 07:34:52;;;;;;;3.88;0.30;;;;;;;3.46;52.75;100721.31;5062778;28;20082;-70
2023/02/27 07:37:17;;;;;;;2.45;0.40;;;;;;;3.44;52.93;100760.06;5062167;28;20032;-70
2023/02/27 07:39:43;;;;;;;1.95;0.40;;;;;;;3.50;51.29;100757.09;5062849;28;20025;-69
2023/02/27 07:42:09;;;;;;;4.75;0.93;;;;;;;3.29;53.13;100730.09;5063254;28;20048;-70
2023/02/27 07:44:35;;;;;;;4.20;0.47;;;;;;;3.34;52.27;100725.47;5059083;28;20025;-70
2023/02/27 07:47:02;;;;;;;1.50;0.40;;;;;;;3.42;52.41;100728.41;5063879;28;20049;-70
2023/02/27 07:49:28;;;;;;;5.25;0.40;;;;;;;3.28;52.55;100742.13;5057995;28;20197;-70
2023/02/27 07:51:53;;;;;;;2.72;0.30;;;;;;;3.36;52.87;100728.75;5062525;28;20025;-70
2023/02/27 07:54:19;;;;;;;1.30;0.50;;;;;;;3.43;53.11;100727.47;5062449;28;20397;-70
2023/02/27 07:56:45;;;;;;;2.10;0.40;;;;;;;3.23;53.38;100733.03;5063556;28;20122;-70
2023/02/27 07:59:11;;;;;;;1.52;0.45;;;;;;;3.18;53.33;100727.31;5065528;28;21435;-70
2023/02/27 08:01:37;;;;;;;2.45;0.57;;;;;;;3.27;53.03;100750.78;5059985;28;20113;-69
2023/02/27 08:04:03;;;;;;;1.15;0.40;;;;;;;3.32;52.66;100750.47;5063816;28;20116;-70
2023/02/27 08:06:29;;;;;;;4.82;0.50;;;;;;;3.22;52.66;100742.50;5062565;28;20067;-69
2023/02/27 08:08:55;;;;;;;1.33;0.45;;;;;;;3.24;52.96;100734.69;5064249;28;20394;-70
2023/02/27 08:11:21;;;;;;;3.53;0.50;;;;;;;3.28;52.89;100751.59;5063595;28;20041;-69
2023/02/27 08:13:48;;;;;;;0.85;0.40;;;;;;;3.32;52.22;100750.47;5065143;28;20563;-69
2023/02/27 08:16:14;;;;;;;1.55;0.47;;;;;;;3.37;52.19;100768.22;5053115;28;20499;-69
2023/02/27 08:18:42;;;;;;;1.73;0.60;;;;;;;3.39;53.08;100782.69;5056163;28;20012;-69
2023/02/27 08:21:08;;;;;;;2.00;0.60;;;;;;;3.38;53.30;100772.47;5061880;28;20037;-69
2023/02/27 08:23:34;;;;;;;2.08;0.50;;;;;;;3.38;52.64;100760.41;5064555;28;20018;-69
2023/02/27 08:26:01;;;;;;;1.35;0.55;;;;;;;3.40;52.66;100766.31;5058573;28;20174;-69
2023/02/27 08:28:27;;;;;;;1.52;0.60;;;;;;;3.41;52.11;100778.25;5062964;28;20056;-69
2023/02/27 08:30:53;;;;;;;2.55;0.30;;;;;;;3.42;52.64;100779.09;5065977;28;20186;-69
2023/02/27 08:33:20;;;;;;;5.22;0.70;;;;;;;3.48;52.96;100753.78;5053908;28;20053;-68
2023/02/27 08:35:46;;;;;;;2.78;0.55;;;;;;;3.72;52.06;100794.47;5065091;28;20044;-69
2023/02/27 08:38:12;;;;;;;4.63;1.00;;;;;;;3.69;51.80;100784.34;5058453;28;20045;-68
2023/02/27 08:40:37;;;;;;;1.77;0.47;;;;;;;3.77;50.75;100798.44;5068116;28;20178;-68
2023/02/27 08:43:03;;;;;;;1.90;0.43;;;;;;;3.82;51.04;100787.81;5058378;28;20115;-69
2023/02/27 08:45:29;;;;;;;3.38;0.65;;;;;;;3.88;51.75;100787.44;5062763;28;20498;-69
2023/02/27 08:47:55;;;;;;;1.15;0.60;;;;;;;3.92;52.07;100783.75;5060308;28;20124;-69
2023/02/27 08:50:21;;;;;;;1.77;0.35;;;;;;;3.95;50.64;100793.88;5054686;28;20361;-69
2023/02/27 08:52:48;;;;;;;1.80;0.60;;;;;;;4.03;50.69;100776.19;5054762;28;20029;-69
2023/02/27 08:55:14;;;;;;;3.22;0.77;;;;;;;4.16;50.47;100781.44;5058955;28;20051;-69
2023/02/27 08:57:39;;;;;;;2.40;0.50;;;;;;;4.13;50.38;100797.91;5059750;28;20033;-69
2023/02/27 09:00:06;;;;;;;2.72;0.63;;;;;;;4.13;50.82;100809.97;5058614;28;20064;-69
2023/02/27 09:02:32;;;;;;;1.17;0.50;;;;;;;4.58;50.14;100801.94;5059483;28;20040;-69
2023/02/27 09:04:58;;;;;;;2.90;0.65;;;;;;;4.42;50.64;100815.88;5053788;28;20029;-69
2023/02/27 09:07:23;;;;;;;2.25;0.60;;;;;;;4.29;49.88;100792.59;5060642;28;20119;-69
2023/02/27 09:09:48;;;;;;;2.83;0.57;;;;;;;4.38;49.75;100806.69;5063949;28;20037;-69
2023/02/27 09:12:14;;;;;;;1.95;0.52;;;;;;;4.40;50.26;100797.09;5062124;28;20037;-69
2023/02/27 09:14:39;;;;;;;3.05;0.55;;;;;;;4.35;49.77;100794.81;5060347;28;20172;-69
2023/02/27 09:17:06;;;;;;;1.48;0.60;;;;;;;4.41;49.09;100804.75;5064504;28;20024;-69
2023/02/27 09:19:32;;;;;;;3.15;0.60;;;;;;;4.46;48.91;100809.63;5059733;28;20025;-69
2023/02/27 09:21:57;;;;;;;2.97;0.52;;;;;;;4.31;50.05;100789.00;5049305;28;20398;-68
2023/02/27 09:24:23;;;;;;;1.08;0.57;;;;;;;4.27;49.93;100804.78;5065133;28;20051;-68
2023/02/27 09:26:49;;;;;;;4.72;0.90;;;;;;;4.27;49.77;100786.72;5068862;28;20467;-69
2023/02/27 09:29:14;;;;;;;3.97;0.60;;;;;;;4.38;49.70;100799.78;5061444;28;20036;-69
2023/02/27 09:31:40;;;;;;;1.60;0.85;;;;;;;4.36;50.26;100803.38;5065278;28;20500;-69
2023/02/27 09:34:05;;;;;;;1.90;0.65;;;;;;;4.42;50.40;100792.66;5067292;28;20029;-68
2023/02/27 09:36:31;;;;;;;2.10;0.70;;;;;;;4.48;49.50;100798.28;5062988;28;20063;-69
2023/02/27 09:38:58;;;;;;;3.33;0.60;;;;;;;4.47;49.40;100800.94;5063953;28;20028;-69
2023/02/27 09:41:43;;;;;;;5.20;0.60;;;;;;;4.49;49.28;100799.09;5067468;28;20037;-69
2023/02/27 09:44:20;;;;;;;3.17;0.70;;;;;;;4.46;49.88;100794.13;5067676;28;20499;-69
2023/02/27 09:46:45;;;;;;;;;;;;;;;4.51;48.89;100792.91;5066020;28;20079;-69
2023/02/27 09:49:17;;;;;;;11.80;1.00;;;;;;;4.45;49.72;100808.78;5065676;28;19904;-68
2023/02/27 09:51:43;;;;;;;2.58;0.60;;;;;;;4.57;49.21;100802.84;5068138;28;20187;-69
2023/02/27 09:54:11;;;;;;;4.35;1.10;;;;;;;4.57;49.27;100813.16;5070027;28;20519;-69
2023/02/27 09:56:52;;;;;;;4.13;0.65;;;;;;;4.80;48.28;100798.78;5067429;28;20483;-69
2023/02/27 09:59:34;;;;;;;3.38;0.80;;;;;;;4.90;48.86;100804.16;5061153;28;20099;-69
2023/02/27 10:02:18;;;;;;;2.40;0.95;;;;;;;4.78;49.27;100805.78;5064877;28;20075;-69
2023/02/27 10:05:08;;;;;;;2.20;0.80;;;;;;;4.72;49.26;100800.22;5067247;28;20476;-69
2023/02/27 10:07:43;;;;;;;2.72;0.90;;;;;;;4.80;48.38;100808.28;5060550;28;20040;-69
2023/02/27 10:10:36;;;;;;;4.37;0.97;;;;;;;4.67;48.47;100792.78;5062156;28;20128;-69
2023/02/27 10:13:27;;;;;;;7.00;1.15;;;;;;;4.99;48.78;100819.91;5058758;28;20098;-69
2023/02/27 10:15:53;;;;;;;2.13;0.57;;;;;;;5.01;48.54;100814.63;5066447;28;20127;-70
2023/02/27 10:18:27;;;;;;;2.15;1.02;;;;;;;5.15;48.16;100813.72;5066913;28;20066;-69
2023/02/27 10:21:04;;;;;;;1.73;0.70;;;;;;;5.13;48.45;100826.75;5037278;28;20388;-70
2023/02/27 10:23:42;;;;;;;1.98;0.60;;;;;;;4.98;48.71;100818.25;5067633;28;20021;-69
2023/02/27 10:26:20;;;;;;;5.95;1.20;;;;;;;5.07;48.16;100824.56;5066400;28;20618;-69
2023/02/27 10:28:45;;;;;;;2.17;0.60;;;;;;;5.26;48.24;100808.66;5065333;28;20036;-69
2023/02/27 10:31:19;;;;;;;2.33;1.10;;;;;;;5.32;47.71;100813.41;5066231;28;20487;-69
2023/02/27 10:33:46;;;;;;;2.92;0.60;;;;;;;5.32;47.92;100827.16;5063083;28;20040;-68
2023/02/27 10:36:13;;;;;;;2.67;0.93;;;;;;;5.43;48.11;100826.47;5063501;28;20069;-69
2023/02/27 10:38:46;;;;;;;2.00;0.70;;;;;;;5.51;48.31;100831.94;5061592;28;20033;-69
2023/02/27 10:41:15;;;;;;;3.45;1.02;;;;;;;5.53;48.46;100840.41;5064925;28;20417;-69
2023/02/27 10:43:41;;;;;;;2.50;0.65;;;;;;;5.67;48.20;100813.66;5061931;28;20048;-69
2023/02/27 10:46:24;;;;;;;2.90;0.98;;;;;;;5.85;47.73;100839.97;5062504;28;20063;-69
2023/02/27 10:48:50;;;;;;;3.47;1.38;;;;;;;5.81;47.20;100828.19;5062115;28;20094;-69
2023/02/27 10:51:43;;;;;;;2.90;1.00;;;;;;;5.47;47.76;100811.56;5056666;28;20052;-70
2023/02/27 10:54:23;;;;;;;3.55;0.80;;;;;;;5.41;47.28;100805.06;5065283;28;20419;-70
2023/02/27 10:56:52;;;;;;;2.08;0.63;;;;;;;5.63;47.15;100815.63;5064723;28;20033;-70
2023/02/27 10:59:39;;;;;;;1.90;0.98;;;;;;;5.46;47.16;100818.50;5069849;28;20032;-70
2023/02/27 11:02:16;;;;;;;3.47;0.82;;;;;;;5.46;48.20;100795.25;5064209;28;20052;-71
2023/02/27 11:04:52;;;;;;;2.28;0.68;;;;;;;5.59;47.36;100800.41;5062974;28;20037;-70
2023/02/27 11:07:35;;;;;;;2.50;1.02;;;;;;;5.53;47.26;100806.81;5066515;28;20044;-70
2023/02/27 11:10:11;;;;;;;3.90;1.02;;;;;;;5.68;46.93;100813.50;5064669;28;23382;-70
2023/02/27 11:12:37;;;;;;;6.15;1.95;;;;;;;5.68;47.39;100794.59;5066817;28;20526;-70
2023/02/27 11:15:14;;;;;;;2.75;0.90;;;;;;;5.80;46.48;100796.34;5069850;28;20028;-70
2023/02/27 11:17:40;;;;;;;3.25;0.82;;;;;;;6.00;47.36;100787.22;5063669;28;20040;-70
2023/02/27 11:20:28;;;;;;;2.20;1.33;;;;;;;6.25;46.11;100802.66;5067157;28;20028;-70
2023/02/27 11:23:19;;;;;;;2.55;0.93;;;;;;;6.41;45.53;100792.06;5063176;28;20041;-70
2023/02/27 11:25:44;;;;;;;2.38;0.95;;;;;;;6.01;45.89;100804.41;5053210;28;20074;-71
2023/02/27 11:28:19;;;;;;;2.75;0.60;;;;;;;5.65;45.97;100807.75;5070037;28;20036;-70
2023/02/27 11:30:55;;;;;;;3.30;0.80;;;;;;;5.56;46.51;100796.28;5065790;28;20062;-71
2023/02/27 11:33:22;;;;;;;11.52;1.20;;;;;;;5.74;46.64;100793.34;5066278;28;20138;-70
2023/02/27 11:35:51;;;;;;;2.40;0.70;;;;;;;5.72;46.17;100815.88;5062702;28;20036;-71
2023/02/27 11:38:22;;;;;;;4.07;0.95;;;;;;;5.57;47.14;100803.09;5057841;28;20426;-70
2023/02/27 11:40:58;;;;;;;1.35;0.73;;;;;;;5.64;47.03;100794.00;5064024;28;20056;-69
2023/02/27 11:43:51;;;;;;;2.28;1.05;;;;;;;5.81;46.43;100784.22;5062222;28;20033;-69
2023/02/27 11:46:22;;;;;;;2.40;0.82;;;;;;;5.99;46.23;100781.22;5057100;28;20060;-69
2023/02/27 11:48:51;;;;;;;3.88;1.00;;;;;;;6.01;46.45;100786.31;5063969;28;20039;-68
2023/02/27 11:51:32;;;;;;;3.25;1.10;;;;;;;5.80;46.45;100782.59;5055442;28;20594;-68
2023/02/27 11:54:00;;;;;;;2.90;1.38;;;;;;;5.83;46.74;100774.63;5062227;28;20044;-69
2023/02/27 11:56:33;;;;;;;4.35;1.00;;;;;;;5.89;46.67;100781.97;5069492;28;20036;-68